createdAt,value
2017-10-22T00:00:03.396Z,0
2017-10-22T00:05:02.701Z,0
2017-10-22T00:10:03.237Z,0
2017-10-22T00:15:02.761Z,0
2017-10-22T00:20:03.322Z,0
2017-10-22T00:25:02.728Z,0
2017-10-22T00:30:03.228Z,0
2017-10-22T00:35:02.674Z,0
2017-10-22T00:40:03.166Z,0
2017-10-22T00:45:02.576Z,0
2017-10-22T00:50:03.110Z,0
2017-10-22T00:55:02.604Z,0
2017-10-22T01:00:03.008Z,0
2017-10-22T01:05:03.409Z,0
2017-10-22T01:10:03.048Z,0
2017-10-22T01:15:02.737Z,0
2017-10-22T01:20:03.372Z,0
2017-10-22T01:25:02.874Z,0
2017-10-22T01:30:03.290Z,0
2017-10-22T01:35:02.910Z,0
2017-10-22T01:40:03.425Z,0
2017-10-22T01:45:02.852Z,0
2017-10-22T01:50:03.341Z,0
2017-10-22T01:55:02.748Z,0
2017-10-22T02:00:03.196Z,0
2017-10-22T02:05:02.679Z,0
2017-10-22T02:10:03.306Z,0
2017-10-22T02:15:02.856Z,0
2017-10-22T02:20:03.451Z,0
2017-10-22T02:25:02.848Z,0
2017-10-22T02:30:03.440Z,0
2017-10-22T02:35:02.895Z,0
2017-10-22T02:40:03.422Z,0
2017-10-22T02:45:02.831Z,0
2017-10-22T02:50:03.415Z,0
2017-10-22T02:55:02.910Z,0
2017-10-22T03:00:02.432Z,0
2017-10-22T03:05:03.113Z,0
2017-10-22T03:10:02.687Z,0
2017-10-22T03:15:03.271Z,0
2017-10-22T03:20:02.745Z,0
2017-10-22T03:25:03.342Z,0
2017-10-22T03:30:02.778Z,0
2017-10-22T03:35:03.210Z,0
2017-10-22T03:40:02.751Z,0
2017-10-22T03:45:03.537Z,0
2017-10-22T03:50:03.034Z,0
2017-10-22T03:55:02.630Z,0
2017-10-22T04:00:03.163Z,0
2017-10-22T04:05:02.751Z,0
2017-10-22T04:10:03.192Z,0
2017-10-22T04:15:02.746Z,0
2017-10-22T04:20:03.275Z,0
2017-10-22T04:25:02.684Z,0
2017-10-22T04:30:03.210Z,0
2017-10-22T04:35:02.795Z,0
2017-10-22T04:40:03.284Z,0
2017-10-22T04:45:02.735Z,0
2017-10-22T04:50:03.015Z,0
2017-10-22T04:55:02.477Z,0
2017-10-22T05:00:03.013Z,0
2017-10-22T05:05:03.423Z,0
2017-10-22T05:10:02.870Z,0
2017-10-22T05:15:03.298Z,0
2017-10-22T05:20:02.838Z,0
2017-10-22T05:25:03.278Z,0
2017-10-22T05:30:02.744Z,0
2017-10-22T05:35:03.285Z,0
2017-10-22T05:40:02.834Z,0
2017-10-22T05:45:03.421Z,1
2017-10-22T05:50:02.857Z,3
2017-10-22T05:55:03.319Z,8
2017-10-22T06:00:02.718Z,11
2017-10-22T06:05:03.115Z,24
2017-10-22T06:10:02.575Z,23
2017-10-22T06:15:03.114Z,40
2017-10-22T06:20:02.736Z,52
2017-10-22T06:25:03.195Z,62
2017-10-22T06:30:02.815Z,68
2017-10-22T06:35:03.383Z,80
2017-10-22T06:40:02.829Z,94
2017-10-22T06:45:03.298Z,197
2017-10-22T06:50:03.019Z,278
2017-10-22T06:55:02.650Z,358
2017-10-22T07:00:03.316Z,333
2017-10-22T07:05:02.845Z,305
2017-10-22T07:10:03.418Z,318
2017-10-22T07:15:02.817Z,372
2017-10-22T07:20:02.461Z,406
2017-10-22T07:25:03.147Z,381
2017-10-22T07:30:02.681Z,440
2017-10-22T07:35:03.119Z,453
2017-10-22T07:40:02.612Z,771
2017-10-22T07:45:03.192Z,955
2017-10-22T07:50:02.771Z,1000
2017-10-22T07:55:03.190Z,1000
2017-10-22T08:00:02.769Z,1000
2017-10-22T08:05:03.212Z,1000
2017-10-22T08:10:02.673Z,1000
2017-10-22T08:15:03.093Z,1000
2017-10-22T08:20:02.511Z,1000
2017-10-22T08:25:02.982Z,2000
2017-10-22T08:30:02.474Z,1000
2017-10-22T08:35:03.018Z,2000
2017-10-22T08:40:02.546Z,1000
2017-10-22T08:45:02.975Z,1000
2017-10-22T08:50:03.419Z,1000
2017-10-22T08:55:03.008Z,1000
2017-10-22T09:00:02.574Z,2000
2017-10-22T09:05:03.092Z,2000
2017-10-22T09:10:02.706Z,1000
2017-10-22T09:15:03.203Z,1000
2017-10-22T09:20:02.754Z,2000
2017-10-22T09:25:03.427Z,1000
2017-10-22T09:30:02.828Z,1000
2017-10-22T09:35:03.412Z,1000
2017-10-22T09:40:02.898Z,1000
2017-10-22T09:45:03.373Z,2000
2017-10-22T09:50:02.948Z,3000
2017-10-22T09:55:03.335Z,3000
2017-10-22T10:00:02.682Z,3000
2017-10-22T10:05:03.115Z,3000
2017-10-22T10:10:02.567Z,2000
2017-10-22T10:15:03.069Z,2000
2017-10-22T10:20:02.683Z,4000
2017-10-22T10:25:03.067Z,4000
2017-10-22T10:30:02.651Z,3000
2017-10-22T10:35:03.226Z,4000
2017-10-22T10:40:02.635Z,5000
2017-10-22T10:45:03.224Z,2000
2017-10-22T10:50:02.755Z,3000
2017-10-22T10:55:03.296Z,5000
2017-10-22T11:00:02.792Z,9000
2017-10-22T11:05:03.291Z,6000
2017-10-22T11:10:02.678Z,5000
2017-10-22T11:15:03.296Z,7000
2017-10-22T11:20:02.770Z,13000
2017-10-22T11:25:03.191Z,10000
2017-10-22T11:30:02.611Z,8000
2017-10-22T11:35:03.080Z,6000
2017-10-22T11:40:02.619Z,3000
2017-10-22T11:45:03.045Z,4000
2017-10-22T11:50:02.573Z,4000
2017-10-22T11:55:03.044Z,2000
2017-10-22T12:00:02.473Z,3000
2017-10-22T12:05:02.923Z,4000
2017-10-22T12:10:03.371Z,6000
2017-10-22T12:15:02.779Z,7000
2017-10-22T12:20:03.378Z,6000
2017-10-22T12:25:02.824Z,5000
2017-10-22T12:30:03.345Z,5000
2017-10-22T12:35:02.906Z,24000
2017-10-22T12:40:02.425Z,20000
2017-10-22T12:45:02.985Z,10000
2017-10-22T12:50:02.562Z,5000
2017-10-22T12:55:03.132Z,2000
2017-10-22T13:00:02.552Z,1000
2017-10-22T13:05:03.020Z,2000
2017-10-22T13:10:02.500Z,3000
2017-10-22T13:15:03.073Z,4000
2017-10-22T13:20:02.630Z,8000
2017-10-22T13:25:03.176Z,7000
2017-10-22T13:30:02.751Z,5000
2017-10-22T13:35:03.244Z,1000
2017-10-22T13:40:02.815Z,1000
2017-10-22T13:45:03.372Z,7000
2017-10-22T13:50:02.837Z,5000
2017-10-22T13:55:03.310Z,3000
2017-10-22T14:00:02.873Z,4000
2017-10-22T14:05:03.399Z,5000
2017-10-22T14:10:02.895Z,4000
2017-10-22T14:15:02.503Z,2000
2017-10-22T14:20:03.094Z,2000
2017-10-22T14:25:02.537Z,2000
2017-10-22T14:30:03.177Z,2000
2017-10-22T14:35:02.755Z,2000
2017-10-22T14:40:03.271Z,3000
2017-10-22T14:45:02.713Z,2000
2017-10-22T14:50:03.324Z,8000
2017-10-22T14:55:02.702Z,13000
2017-10-22T15:00:03.189Z,6000
2017-10-22T15:05:02.776Z,2000
2017-10-22T15:10:02.465Z,2000
2017-10-22T15:15:03.065Z,1000
2017-10-22T15:20:02.535Z,1000
2017-10-22T15:25:02.989Z,1000
2017-10-22T15:30:02.609Z,995
2017-10-22T15:35:03.303Z,891
2017-10-22T15:40:02.843Z,892
2017-10-22T15:45:03.282Z,969
2017-10-22T15:50:02.740Z,866
2017-10-22T15:55:03.293Z,685
2017-10-22T16:00:02.882Z,477
2017-10-22T16:05:03.367Z,491
2017-10-22T16:10:02.969Z,273
2017-10-22T16:15:02.544Z,218
2017-10-22T16:20:03.204Z,107
2017-10-22T16:25:02.735Z,82
2017-10-22T16:30:03.360Z,61
2017-10-22T16:35:03.093Z,55
2017-10-22T16:40:02.575Z,43
2017-10-22T16:45:03.005Z,35
2017-10-22T16:50:02.559Z,9
2017-10-22T16:55:03.045Z,1
2017-10-22T17:00:02.598Z,1
2017-10-22T17:05:03.217Z,0
2017-10-22T17:10:02.711Z,0
2017-10-22T17:15:03.266Z,0
2017-10-22T17:20:02.824Z,0
2017-10-22T17:25:02.490Z,0
2017-10-22T17:30:02.918Z,0
2017-10-22T17:35:03.411Z,0
2017-10-22T17:40:02.855Z,0
2017-10-22T17:45:02.451Z,0
2017-10-22T17:50:03.043Z,0
2017-10-22T17:55:02.515Z,0
2017-10-22T18:00:02.907Z,0
2017-10-22T18:05:03.345Z,0
2017-10-22T18:10:03.000Z,0
2017-10-22T18:15:02.579Z,0
2017-10-22T18:20:03.191Z,0
2017-10-22T18:25:02.744Z,0
2017-10-22T18:30:03.198Z,0
2017-10-22T18:35:02.737Z,0
2017-10-22T18:40:03.247Z,0
2017-10-22T18:50:03.390Z,0
2017-10-22T18:55:02.914Z,0
2017-10-22T19:00:03.429Z,0
2017-10-22T19:05:03.044Z,0
2017-10-22T19:10:02.692Z,0
2017-10-22T19:15:03.257Z,0
2017-10-22T19:20:02.859Z,0
2017-10-22T19:25:03.311Z,0
2017-10-22T19:30:02.764Z,0
2017-10-22T19:35:03.394Z,0
2017-10-22T19:40:02.843Z,0
2017-10-22T19:45:03.385Z,0
2017-10-22T19:50:02.918Z,0
2017-10-22T19:55:03.428Z,0
2017-10-22T20:00:03.057Z,0
2017-10-22T20:05:02.556Z,0
2017-10-22T20:10:03.200Z,0
2017-10-22T20:15:02.774Z,0
2017-10-22T20:20:03.335Z,0
2017-10-22T20:25:02.823Z,0
2017-10-22T20:30:03.405Z,0
2017-10-22T20:35:02.833Z,0
2017-10-22T20:40:03.302Z,0
2017-10-22T20:45:02.799Z,0
2017-10-22T20:50:03.336Z,0
2017-10-22T20:55:02.902Z,0
2017-10-22T21:00:03.330Z,0
2017-10-22T21:05:02.911Z,0
2017-10-22T21:10:02.556Z,0
2017-10-22T21:15:03.205Z,0
2017-10-22T21:20:02.857Z,0
2017-10-22T21:25:03.344Z,0
2017-10-22T21:30:02.896Z,0
2017-10-22T21:35:02.456Z,0
2017-10-22T21:40:03.084Z,0
2017-10-22T21:45:02.691Z,0
2017-10-22T21:50:03.136Z,0
2017-10-22T21:55:02.645Z,0
2017-10-22T22:00:03.118Z,0
2017-10-22T22:05:02.750Z,0
2017-10-22T22:10:03.391Z,0
2017-10-22T22:15:02.954Z,0
2017-10-22T22:20:03.456Z,0
2017-10-22T22:25:02.922Z,0
2017-10-22T22:30:03.310Z,0
2017-10-22T22:35:02.849Z,0
2017-10-22T22:40:02.504Z,0
2017-10-22T22:45:03.001Z,0
2017-10-22T22:50:02.509Z,0
2017-10-22T22:55:03.096Z,0
2017-10-22T23:00:03.266Z,0
2017-10-22T23:05:02.932Z,0
2017-10-22T23:10:02.465Z,0
2017-10-22T23:15:03.171Z,0
2017-10-22T23:20:02.638Z,0
2017-10-22T23:25:03.124Z,0
2017-10-22T23:30:02.666Z,0
2017-10-22T23:35:03.210Z,0
2017-10-22T23:40:02.794Z,0
2017-10-22T23:45:03.352Z,0
2017-10-22T23:50:02.752Z,0
2017-10-22T23:55:03.169Z,0
